Punta Gialla — IWUC — position and weather

sailwx.info

Track history (hours):
 
Tides and Currents Weather Stations Pressure Air Temp Water Temp Dewpoint Dewpoint Depression Visibility Wind Speed Wind Dir Waves Ship Positions

Punta Gialla

Last reported at 2015-Aug-02 21:33 UTC. Time now 2015-Aug-02 22:31 UTC.
Position N 44°24' E 008°54'.

Length 52 m; draft 1.7 m.

Type: Tanker. MMSI: 247077500.

Date/timePositionNaut miles runAvg speedWind from/ knotsBaromVisibWave heightAir tempDewpointWater temp
2015-Aug-02 21:33N 44°24' E 008°54'0 0.0
2015-Aug-02 20:33N 44°24' E 008°54'0 0.0
2015-Aug-02 19:33N 44°24' E 008°54'0 0.0
2015-Aug-02 18:33N 44°24' E 008°54'0 0.5
2015-Aug-02 17:34N 44°25' E 008°55'0 0.0
2015-Aug-02 16:34N 44°25' E 008°55'0 0.3
2015-Aug-02 15:34N 44°24' E 008°55'0 0.5
2015-Aug-02 14:33N 44°24' E 008°54'0 0.0
2015-Aug-01 20:18N 44°24' E 008°54'0 0.0
2015-Aug-01 19:34N 44°24' E 008°54'0 0.0
2015-Aug-01 18:33N 44°24' E 008°54'0 0.0
2015-Aug-01 17:34N 44°24' E 008°54'0 0.0
2015-Aug-01 16:34N 44°24' E 008°54'0 0.0
2015-Aug-01 15:33N 44°24' E 008°54'0 0.0
2015-Aug-01 14:33N 44°24' E 008°54'0 0.0
2015-Aug-01 13:33N 44°24' E 008°54'0 0.0
2015-Aug-01 12:33N 44°24' E 008°54'0 0.0
2015-Aug-01 11:33N 44°24' E 008°54'0 0.0
2015-Aug-01 10:33N 44°24' E 008°54'1 0.7
2015-Aug-01 09:33N 44°24' E 008°55'1 0.9
2015-Aug-01 08:34N 44°24' E 008°54'1 0.9
2015-Aug-01 07:34N 44°24' E 008°53'0 0.2
2015-Aug-01 06:34N 44°24' E 008°53'1 1.0
2015-Aug-01 05:34N 44°24' E 008°54'0 0.0
2015-Aug-01 04:34N 44°24' E 008°54'0 0.0
2015-Aug-01 03:34N 44°24' E 008°54'0 0.0
2015-Aug-01 02:34N 44°24' E 008°54'0 0.0
2015-Aug-01 01:34N 44°24' E 008°54'0 0.0
2015-Aug-01 00:34N 44°24' E 008°54'0 0.0
2015-Jul-31 23:34N 44°24' E 008°54'0 0.0
2015-Jul-31 22:34N 44°24' E 008°54'0 0.0
2015-Jul-31 21:34N 44°24' E 008°54'0 0.0
2015-Jul-31 20:34N 44°24' E 008°54'1 0.6
2015-Jul-31 19:34N 44°25' E 008°55'0 0.0
2015-Jul-31 18:34N 44°25' E 008°55'1 1.3
2015-Jul-31 17:33N 44°24' E 008°53'0 0.0
2015-Jul-31 16:33N 44°24' E 008°53'1 1.0
2015-Jul-31 15:33N 44°24' E 008°54'0 0.0
2015-Jul-31 14:33N 44°24' E 008°54'2 1.8
2015-Jul-31 13:33N 44°24' E 008°52'0 0.0
2015-Jul-31 12:33N 44°24' E 008°52'0 0.0
2015-Jul-31 11:33N 44°24' E 008°52'0 0.0
2015-Jul-31 10:34N 44°24' E 008°52'0 0.0
2015-Jul-31 09:33N 44°24' E 008°52'2 1.8
2015-Jul-31 08:33N 44°24' E 008°54'0 0.0
2015-Jul-31 07:33N 44°24' E 008°54'0 0.0
2015-Jul-31 06:33N 44°24' E 008°54'0 0.0
2015-Jul-31 01:34N 44°24' E 008°54'0 0.0
2015-Jul-31 00:33N 44°24' E 008°54'0 0.0
2015-Jul-30 23:33N 44°24' E 008°54'0 0.0
2015-Jul-30 22:34N 44°24' E 008°54'0 0.0
2015-Jul-30 21:33N 44°24' E 008°54'0 0.0
2015-Jul-30 20:34N 44°24' E 008°54'0 0.0
2015-Jul-30 19:33N 44°24' E 008°54'0 0.0
2015-Jul-30 18:34N 44°24' E 008°54'0 0.0
2015-Jul-30 17:33N 44°24' E 008°54'0 0.0
2015-Jul-30 16:34N 44°24' E 008°54'0 0.0
2015-Jul-30 15:33N 44°24' E 008°54'0 0.0
2015-Jul-30 14:34N 44°24' E 008°54'0 0.0
2015-Jul-30 13:33N 44°24' E 008°54'0 0.0
2015-Jul-30 12:34N 44°24' E 008°54'0 0.5
2015-Jul-30 11:34N 44°24' E 008°55'0 0.0
2015-Jul-30 10:34N 44°24' E 008°55'0 0.0
2015-Jul-30 09:34N 44°24' E 008°55'0 0.0
2015-Jul-30 08:33N 44°24' E 008°55'0 0.1
2015-Jul-30 07:33N 44°24' E 008°55'0 0.4
2015-Jul-30 06:34N 44°24' E 008°54'0 0.0
2015-Jul-30 04:33N 44°24' E 008°54'0 0.0
2015-Jul-30 03:33N 44°24' E 008°54'0 0.0
2015-Jul-30 02:33N 44°24' E 008°54'0 0.0
2015-Jul-30 01:33N 44°24' E 008°54'0 0.0
2015-Jul-30 00:33N 44°24' E 008°54'0 0.0
2015-Jul-29 23:33N 44°24' E 008°54'0 0.0
2015-Jul-29 22:33N 44°24' E 008°54'0 0.0
2015-Jul-29 21:33N 44°24' E 008°54'0 0.0
2015-Jul-29 20:33N 44°24' E 008°54'0 0.0
2015-Jul-29 19:33N 44°24' E 008°54'0 0.0
2015-Jul-29 18:33N 44°24' E 008°54'0 0.0
2015-Jul-29 17:33N 44°24' E 008°54'4 3.9
2015-Jul-29 16:33N 44°22' E 008°50'7 7.4
2015-Jul-29 15:33N 44°17' E 008°42'7 7.5
2015-Jul-29 14:33N 44°16' E 008°32'3 3.4
2015-Jul-29 13:33N 44°16' E 008°27'0 0.0
2015-Jul-29 12:33N 44°16' E 008°27'0 0.1
2015-Jul-29 11:33N 44°16' E 008°27'0 0.0
2015-Jul-29 10:33N 44°16' E 008°27'1 0.7
2015-Jul-29 09:33N 44°16' E 008°28'7 7.5
2015-Jul-29 08:33N 44°18' E 008°38'8 7.6
2015-Jul-29 07:33N 44°22' E 008°47'6 5.8
2015-Jul-29 06:33N 44°24' E 008°54'0 0.0
2015-Jul-29 04:18N 44°24' E 008°54'0 0.0
2015-Jul-29 03:33N 44°24' E 008°54'0 0.0
2015-Jul-29 02:34N 44°24' E 008°54'0 0.0
2015-Jul-29 01:33N 44°24' E 008°54'0 0.0
2015-Jul-29 00:34N 44°24' E 008°54'0 0.0
2015-Jul-28 23:34N 44°24' E 008°54'0 0.0
2015-Jul-28 22:33N 44°24' E 008°54'0 0.0
2015-Jul-28 21:34N 44°24' E 008°54'0 0.0
2015-Jul-28 20:33N 44°24' E 008°54'0 0.0
2015-Jul-28 19:33N 44°24' E 008°54'0 0.0
2015-Jul-28 18:33N 44°24' E 008°54'0 0.0
2015-Jul-28 17:33N 44°24' E 008°54'0 0.0
2015-Jul-28 16:33N 44°24' E 008°54'0 0.0
2015-Jul-28 15:34N 44°24' E 008°54'0 0.0
2015-Jul-28 14:34N 44°24' E 008°54'0 0.0
2015-Jul-28 13:33N 44°24' E 008°54'0 0.0
2015-Jul-28 12:34N 44°24' E 008°54'0 0.1
2015-Jul-28 11:33N 44°24' E 008°54'0 0.0
2015-Jul-28 10:34N 44°24' E 008°54'8 8.0
2015-Jul-28 09:34N 44°18' E 009°02'10 9.7
2015-Jul-28 08:33N 44°13' E 009°13'9 9.4
2015-Jul-28 07:33N 44°08' E 009°24'9 8.9
2015-Jul-28 06:33N 44°03' E 009°35'8 8.2
2015-Jul-28 05:33N 43°59' E 009°45'6 5.9
2015-Jul-28 04:34N 44°01' E 009°53'5 4.5
2015-Jul-28 03:34N 44°05' E 009°51'0 0.0
2015-Jul-28 02:33N 44°05' E 009°51'0 0.0
2015-Jul-28 01:34N 44°05' E 009°51'0 0.0
2015-Jul-28 00:33N 44°05' E 009°51'0 0.0
2015-Jul-27 23:34N 44°05' E 009°51'0 0.0
2015-Jul-27 22:34N 44°05' E 009°51'0 0.1
2015-Jul-27 21:34N 44°05' E 009°51'1 1.4
2015-Jul-27 20:34N 44°06' E 009°50'0 0.0
2015-Jul-27 19:34N 44°06' E 009°50'0 0.0
2015-Jul-27 18:34N 44°06' E 009°50'5 4.6
2015-Jul-27 17:34N 44°02' E 009°54'6 5.5
2015-Jul-27 16:33N 43°59' E 009°47'8 8.4
2015-Jul-27 15:33N 44°03' E 009°36'8 8.2
2015-Jul-27 14:33N 44°06' E 009°26'8 7.9
2015-Jul-27 13:33N 44°09' E 009°16'8 7.7
2015-Jul-27 12:33N 44°13' E 009°06'7 7.3
2015-Jul-27 11:33N 44°18' E 008°59'7 6.8
2015-Jul-27 10:33N 44°24' E 008°54'0 0.0
2015-Jul-27 09:33N 44°24' E 008°54'0 0.0
2015-Jul-27 08:33N 44°24' E 008°54'0 0.0
2015-Jul-27 07:33N 44°24' E 008°54'0 0.0
2015-Jul-27 06:33N 44°24' E 008°54'0 0.0
2015-Jul-27 05:33N 44°24' E 008°54'0 0.0
2015-Jul-27 04:33N 44°24' E 008°54'0 0.0
2015-Jul-27 03:33N 44°24' E 008°54'0 0.0
2015-Jul-27 02:33N 44°24' E 008°54'0 0.0
2015-Jul-27 01:33N 44°24' E 008°54'0 0.0
2015-Jul-27 00:33N 44°24' E 008°54'0 0.0
2015-Jul-26 23:33N 44°24' E 008°54'5 4.6
2015-Jul-26 22:33N 44°21' E 008°59'9 8.9
2015-Jul-26 21:33N 44°14' E 009°06'0 0.0
2015-Jul-26 06:30N 44°14' E 009°06'7 7.0
2015-Jul-26 05:33N 44°18' E 008°59'7 6.7
2015-Jul-26 04:33N 44°24' E 008°54'0 0.0
2015-Jul-25 22:19N 44°24' E 008°54'0 0.0
2015-Jul-25 21:33N 44°24' E 008°54'0 0.0
2015-Jul-25 20:33N 44°24' E 008°54'0 0.0
2015-Jul-25 19:33N 44°24' E 008°54'0 0.0
2015-Jul-25 18:33N 44°24' E 008°54'0 0.0
2015-Jul-25 17:33N 44°24' E 008°54'0 0.0
2015-Jul-25 16:33N 44°24' E 008°54'0 0.0
2015-Jul-25 15:33N 44°24' E 008°54'0 0.0
2015-Jul-25 14:33N 44°24' E 008°54'0 0.0
2015-Jul-25 13:33N 44°24' E 008°54'0 0.0
2015-Jul-25 12:33N 44°24' E 008°54'1 0.8
2015-Jul-25 11:33N 44°25' E 008°55'0 0.0
2015-Jul-25 10:33N 44°25' E 008°55'0 0.0
2015-Jul-25 09:33N 44°25' E 008°55'0 0.0
2015-Jul-25 08:33N 44°25' E 008°55'0 0.3
2015-Jul-25 07:33N 44°25' E 008°55'0 0.1
2015-Jul-25 06:33N 44°25' E 008°55'1 0.5
2015-Jul-25 05:33N 44°24' E 008°54'0 0.0
2015-Jul-25 02:21N 44°24' E 008°54'0 0.0
2015-Jul-25 01:33N 44°24' E 008°54'0 0.0
2015-Jul-25 00:33N 44°24' E 008°54'0 0.0
2015-Jul-24 23:33N 44°24' E 008°54'0 0.0
2015-Jul-24 22:34N 44°24' E 008°54'0 0.0
2015-Jul-24 21:33N 44°24' E 008°54'0 0.0
2015-Jul-24 20:34N 44°24' E 008°54'0 0.0
2015-Jul-24 19:33N 44°24' E 008°54'0 0.0
2015-Jul-24 18:33N 44°24' E 008°54'0 0.0
2015-Jul-24 17:33N 44°24' E 008°54'0 0.0
2015-Jul-24 16:33N 44°24' E 008°54'0 0.0
2015-Jul-24 15:33N 44°24' E 008°54'0 0.4
2015-Jul-24 14:33N 44°24' E 008°55'0 0.0
2015-Jul-24 13:33N 44°24' E 008°55'0 0.5
2015-Jul-24 12:33N 44°24' E 008°54'0 0.1
2015-Jul-24 11:33N 44°24' E 008°54'0 0.5
2015-Jul-24 10:34N 44°24' E 008°55'0 0.0
2015-Jul-24 09:33N 44°24' E 008°55'0 0.1
2015-Jul-24 08:33N 44°24' E 008°55'0 0.0
2015-Jul-24 07:33N 44°24' E 008°55'0 0.4
2015-Jul-24 06:33N 44°24' E 008°54'0 0.0
2015-Jul-24 01:13N 44°24' E 008°54'0 0.0
2015-Jul-24 00:33N 44°24' E 008°54'0 0.0
2015-Jul-23 23:33N 44°24' E 008°54'0 0.0
2015-Jul-23 22:33N 44°24' E 008°54'0 0.0
2015-Jul-23 21:33N 44°24' E 008°54'  
Track history (hours):
 
Tides and Currents Weather Stations Pressure Air Temp Water Temp Dewpoint Dewpoint Depression Visibility Wind Speed Wind Dir Waves Ship Positions

Punta Gialla

Last reported at 2015-Aug-02 21:33 UTC. Time now 2015-Aug-02 22:31 UTC.
Position N 44°24' E 008°54'.

Length 52 m; draft 1.7 m.

Type: Tanker. MMSI: 247077500.

Date/timePositionNaut miles runAvg speedWind from/ knotsBaromVisibWave heightAir tempDewpointWater temp
2015-Aug-02 21:33N 44°24' E 008°54'0 0.0
2015-Aug-02 20:33N 44°24' E 008°54'0 0.0
2015-Aug-02 19:33N 44°24' E 008°54'0 0.0
2015-Aug-02 18:33N 44°24' E 008°54'0 0.5
2015-Aug-02 17:34N 44°25' E 008°55'0 0.0
2015-Aug-02 16:34N 44°25' E 008°55'0 0.3
2015-Aug-02 15:34N 44°24' E 008°55'0 0.5
2015-Aug-02 14:33N 44°24' E 008°54'0 0.0
2015-Aug-01 20:18N 44°24' E 008°54'0 0.0
2015-Aug-01 19:34N 44°24' E 008°54'0 0.0
2015-Aug-01 18:33N 44°24' E 008°54'0 0.0
2015-Aug-01 17:34N 44°24' E 008°54'0 0.0
2015-Aug-01 16:34N 44°24' E 008°54'0 0.0
2015-Aug-01 15:33N 44°24' E 008°54'0 0.0
2015-Aug-01 14:33N 44°24' E 008°54'0 0.0
2015-Aug-01 13:33N 44°24' E 008°54'0 0.0
2015-Aug-01 12:33N 44°24' E 008°54'0 0.0
2015-Aug-01 11:33N 44°24' E 008°54'0 0.0
2015-Aug-01 10:33N 44°24' E 008°54'1 0.7
2015-Aug-01 09:33N 44°24' E 008°55'1 0.9
2015-Aug-01 08:34N 44°24' E 008°54'1 0.9
2015-Aug-01 07:34N 44°24' E 008°53'0 0.2
2015-Aug-01 06:34N 44°24' E 008°53'1 1.0
2015-Aug-01 05:34N 44°24' E 008°54'0 0.0
2015-Aug-01 04:34N 44°24' E 008°54'0 0.0
2015-Aug-01 03:34N 44°24' E 008°54'0 0.0
2015-Aug-01 02:34N 44°24' E 008°54'0 0.0
2015-Aug-01 01:34N 44°24' E 008°54'0 0.0
2015-Aug-01 00:34N 44°24' E 008°54'0 0.0
2015-Jul-31 23:34N 44°24' E 008°54'0 0.0
2015-Jul-31 22:34N 44°24' E 008°54'0 0.0
2015-Jul-31 21:34N 44°24' E 008°54'0 0.0
2015-Jul-31 20:34N 44°24' E 008°54'1 0.6
2015-Jul-31 19:34N 44°25' E 008°55'0 0.0
2015-Jul-31 18:34N 44°25' E 008°55'1 1.3
2015-Jul-31 17:33N 44°24' E 008°53'0 0.0
2015-Jul-31 16:33N 44°24' E 008°53'1 1.0
2015-Jul-31 15:33N 44°24' E 008°54'0 0.0
2015-Jul-31 14:33N 44°24' E 008°54'2 1.8
2015-Jul-31 13:33N 44°24' E 008°52'0 0.0
2015-Jul-31 12:33N 44°24' E 008°52'0 0.0
2015-Jul-31 11:33N 44°24' E 008°52'0 0.0
2015-Jul-31 10:34N 44°24' E 008°52'0 0.0
2015-Jul-31 09:33N 44°24' E 008°52'2 1.8
2015-Jul-31 08:33N 44°24' E 008°54'0 0.0
2015-Jul-31 07:33N 44°24' E 008°54'0 0.0
2015-Jul-31 06:33N 44°24' E 008°54'0 0.0
2015-Jul-31 01:34N 44°24' E 008°54'0 0.0
2015-Jul-31 00:33N 44°24' E 008°54'0 0.0
2015-Jul-30 23:33N 44°24' E 008°54'0 0.0
2015-Jul-30 22:34N 44°24' E 008°54'0 0.0
2015-Jul-30 21:33N 44°24' E 008°54'0 0.0
2015-Jul-30 20:34N 44°24' E 008°54'0 0.0
2015-Jul-30 19:33N 44°24' E 008°54'0 0.0
2015-Jul-30 18:34N 44°24' E 008°54'0 0.0
2015-Jul-30 17:33N 44°24' E 008°54'0 0.0
2015-Jul-30 16:34N 44°24' E 008°54'0 0.0
2015-Jul-30 15:33N 44°24' E 008°54'0 0.0
2015-Jul-30 14:34N 44°24' E 008°54'0 0.0
2015-Jul-30 13:33N 44°24' E 008°54'0 0.0
2015-Jul-30 12:34N 44°24' E 008°54'0 0.5
2015-Jul-30 11:34N 44°24' E 008°55'0 0.0
2015-Jul-30 10:34N 44°24' E 008°55'0 0.0
2015-Jul-30 09:34N 44°24' E 008°55'0 0.0
2015-Jul-30 08:33N 44°24' E 008°55'0 0.1
2015-Jul-30 07:33N 44°24' E 008°55'0 0.4
2015-Jul-30 06:34N 44°24' E 008°54'0 0.0
2015-Jul-30 04:33N 44°24' E 008°54'0 0.0
2015-Jul-30 03:33N 44°24' E 008°54'0 0.0
2015-Jul-30 02:33N 44°24' E 008°54'0 0.0
2015-Jul-30 01:33N 44°24' E 008°54'0 0.0
2015-Jul-30 00:33N 44°24' E 008°54'0 0.0
2015-Jul-29 23:33N 44°24' E 008°54'0 0.0
2015-Jul-29 22:33N 44°24' E 008°54'0 0.0
2015-Jul-29 21:33N 44°24' E 008°54'0 0.0
2015-Jul-29 20:33N 44°24' E 008°54'0 0.0
2015-Jul-29 19:33N 44°24' E 008°54'0 0.0
2015-Jul-29 18:33N 44°24' E 008°54'0 0.0
2015-Jul-29 17:33N 44°24' E 008°54'4 3.9
2015-Jul-29 16:33N 44°22' E 008°50'7 7.4
2015-Jul-29 15:33N 44°17' E 008°42'7 7.5
2015-Jul-29 14:33N 44°16' E 008°32'3 3.4
2015-Jul-29 13:33N 44°16' E 008°27'0 0.0
2015-Jul-29 12:33N 44°16' E 008°27'0 0.1
2015-Jul-29 11:33N 44°16' E 008°27'0 0.0
2015-Jul-29 10:33N 44°16' E 008°27'1 0.7
2015-Jul-29 09:33N 44°16' E 008°28'7 7.5
2015-Jul-29 08:33N 44°18' E 008°38'8 7.6
2015-Jul-29 07:33N 44°22' E 008°47'6 5.8
2015-Jul-29 06:33N 44°24' E 008°54'0 0.0
2015-Jul-29 04:18N 44°24' E 008°54'0 0.0
2015-Jul-29 03:33N 44°24' E 008°54'0 0.0
2015-Jul-29 02:34N 44°24' E 008°54'0 0.0
2015-Jul-29 01:33N 44°24' E 008°54'0 0.0
2015-Jul-29 00:34N 44°24' E 008°54'0 0.0
2015-Jul-28 23:34N 44°24' E 008°54'0 0.0
2015-Jul-28 22:33N 44°24' E 008°54'0 0.0
2015-Jul-28 21:34N 44°24' E 008°54'0 0.0
2015-Jul-28 20:33N 44°24' E 008°54'0 0.0
2015-Jul-28 19:33N 44°24' E 008°54'0 0.0
2015-Jul-28 18:33N 44°24' E 008°54'0 0.0
2015-Jul-28 17:33N 44°24' E 008°54'0 0.0
2015-Jul-28 16:33N 44°24' E 008°54'0 0.0
2015-Jul-28 15:34N 44°24' E 008°54'0 0.0
2015-Jul-28 14:34N 44°24' E 008°54'0 0.0
2015-Jul-28 13:33N 44°24' E 008°54'0 0.0
2015-Jul-28 12:34N 44°24' E 008°54'0 0.1
2015-Jul-28 11:33N 44°24' E 008°54'0 0.0
2015-Jul-28 10:34N 44°24' E 008°54'8 8.0
2015-Jul-28 09:34N 44°18' E 009°02'10 9.7
2015-Jul-28 08:33N 44°13' E 009°13'9 9.4
2015-Jul-28 07:33N 44°08' E 009°24'9 8.9
2015-Jul-28 06:33N 44°03' E 009°35'8 8.2
2015-Jul-28 05:33N 43°59' E 009°45'6 5.9
2015-Jul-28 04:34N 44°01' E 009°53'5 4.5
2015-Jul-28 03:34N 44°05' E 009°51'0 0.0
2015-Jul-28 02:33N 44°05' E 009°51'0 0.0
2015-Jul-28 01:34N 44°05' E 009°51'0 0.0
2015-Jul-28 00:33N 44°05' E 009°51'0 0.0
2015-Jul-27 23:34N 44°05' E 009°51'0 0.0
2015-Jul-27 22:34N 44°05' E 009°51'0 0.1
2015-Jul-27 21:34N 44°05' E 009°51'1 1.4
2015-Jul-27 20:34N 44°06' E 009°50'0 0.0
2015-Jul-27 19:34N 44°06' E 009°50'0 0.0
2015-Jul-27 18:34N 44°06' E 009°50'5 4.6
2015-Jul-27 17:34N 44°02' E 009°54'6 5.5
2015-Jul-27 16:33N 43°59' E 009°47'8 8.4
2015-Jul-27 15:33N 44°03' E 009°36'8 8.2
2015-Jul-27 14:33N 44°06' E 009°26'8 7.9
2015-Jul-27 13:33N 44°09' E 009°16'8 7.7
2015-Jul-27 12:33N 44°13' E 009°06'7 7.3
2015-Jul-27 11:33N 44°18' E 008°59'7 6.8
2015-Jul-27 10:33N 44°24' E 008°54'0 0.0
2015-Jul-27 09:33N 44°24' E 008°54'0 0.0
2015-Jul-27 08:33N 44°24' E 008°54'0 0.0
2015-Jul-27 07:33N 44°24' E 008°54'0 0.0
2015-Jul-27 06:33N 44°24' E 008°54'0 0.0
2015-Jul-27 05:33N 44°24' E 008°54'0 0.0
2015-Jul-27 04:33N 44°24' E 008°54'0 0.0
2015-Jul-27 03:33N 44°24' E 008°54'0 0.0
2015-Jul-27 02:33N 44°24' E 008°54'0 0.0
2015-Jul-27 01:33N 44°24' E 008°54'0 0.0
2015-Jul-27 00:33N 44°24' E 008°54'0 0.0
2015-Jul-26 23:33N 44°24' E 008°54'5 4.6
2015-Jul-26 22:33N 44°21' E 008°59'9 8.9
2015-Jul-26 21:33N 44°14' E 009°06'0 0.0
2015-Jul-26 06:30N 44°14' E 009°06'7 7.0
2015-Jul-26 05:33N 44°18' E 008°59'7 6.7
2015-Jul-26 04:33N 44°24' E 008°54'0 0.0
2015-Jul-25 22:19N 44°24' E 008°54'0 0.0
2015-Jul-25 21:33N 44°24' E 008°54'0 0.0
2015-Jul-25 20:33N 44°24' E 008°54'0 0.0
2015-Jul-25 19:33N 44°24' E 008°54'0 0.0
2015-Jul-25 18:33N 44°24' E 008°54'0 0.0
2015-Jul-25 17:33N 44°24' E 008°54'0 0.0
2015-Jul-25 16:33N 44°24' E 008°54'0 0.0
2015-Jul-25 15:33N 44°24' E 008°54'0 0.0
2015-Jul-25 14:33N 44°24' E 008°54'0 0.0
2015-Jul-25 13:33N 44°24' E 008°54'0 0.0
2015-Jul-25 12:33N 44°24' E 008°54'1 0.8
2015-Jul-25 11:33N 44°25' E 008°55'0 0.0
2015-Jul-25 10:33N 44°25' E 008°55'0 0.0
2015-Jul-25 09:33N 44°25' E 008°55'0 0.0
2015-Jul-25 08:33N 44°25' E 008°55'0 0.3
2015-Jul-25 07:33N 44°25' E 008°55'0 0.1
2015-Jul-25 06:33N 44°25' E 008°55'1 0.5
2015-Jul-25 05:33N 44°24' E 008°54'0 0.0
2015-Jul-25 02:21N 44°24' E 008°54'0 0.0
2015-Jul-25 01:33N 44°24' E 008°54'0 0.0
2015-Jul-25 00:33N 44°24' E 008°54'0 0.0
2015-Jul-24 23:33N 44°24' E 008°54'0 0.0
2015-Jul-24 22:34N 44°24' E 008°54'0 0.0
2015-Jul-24 21:33N 44°24' E 008°54'0 0.0
2015-Jul-24 20:34N 44°24' E 008°54'0 0.0
2015-Jul-24 19:33N 44°24' E 008°54'0 0.0
2015-Jul-24 18:33N 44°24' E 008°54'0 0.0
2015-Jul-24 17:33N 44°24' E 008°54'0 0.0
2015-Jul-24 16:33N 44°24' E 008°54'0 0.0
2015-Jul-24 15:33N 44°24' E 008°54'0 0.4
2015-Jul-24 14:33N 44°24' E 008°55'0 0.0
2015-Jul-24 13:33N 44°24' E 008°55'0 0.5
2015-Jul-24 12:33N 44°24' E 008°54'0 0.1
2015-Jul-24 11:33N 44°24' E 008°54'0 0.5
2015-Jul-24 10:34N 44°24' E 008°55'0 0.0
2015-Jul-24 09:33N 44°24' E 008°55'0 0.1
2015-Jul-24 08:33N 44°24' E 008°55'0 0.0
2015-Jul-24 07:33N 44°24' E 008°55'0 0.4
2015-Jul-24 06:33N 44°24' E 008°54'0 0.0
2015-Jul-24 01:13N 44°24' E 008°54'0 0.0
2015-Jul-24 00:33N 44°24' E 008°54'0 0.0
2015-Jul-23 23:33N 44°24' E 008°54'0 0.0
2015-Jul-23 22:33N 44°24' E 008°54'0 0.0
2015-Jul-23 21:33N 44°24' E 008°54'  

Dump ship's entire track history